sensor_id;sensor_type;location;lat;lon;timestamp;pressure;altitude;pressure_sealevel;temperature;humidity
44255;BME280;29933;47.226;15.734;2022-12-18T00:01:20;97536.34;;;-6.18;100.00
44255;BME280;29933;47.226;15.734;2022-12-18T00:03:47;97538.13;;;-6.24;100.00
44255;BME280;29933;47.226;15.734;2022-12-18T00:06:14;97542.31;;;-6.28;100.00
44255;BME280;29933;47.226;15.734;2022-12-18T00:08:42;97545.44;;;-6.31;100.00
44255;BME280;29933;47.226;15.734;2022-12-18T00:11:18;97544.66;;;-6.31;100.00
44255;BME280;29933;47.226;15.734;2022-12-18T00:13:44;97549.63;;;-6.35;100.00
44255;BME280;29933;47.226;15.734;2022-12-18T00:16:17;97552.53;;;-6.37;100.00
44255;BME280;29933;47.226;15.734;2022-12-18T00:18:50;97556.47;;;-6.39;100.00
44255;BME280;29933;47.226;15.734;2022-12-18T00:21:16;97560.94;;;-6.40;100.00
44255;BME280;29933;47.226;15.734;2022-12-18T00:23:44;97562.50;;;-6.44;100.00
44255;BME280;29933;47.226;15.734;2022-12-18T00:26:20;97569.13;;;-6.41;100.00
44255;BME280;29933;47.226;15.734;2022-12-18T00:28:46;97562.53;;;-6.39;100.00
44255;BME280;29933;47.226;15.734;2022-12-18T00:31:22;97572.56;;;-6.41;100.00
44255;BME280;29933;47.226;15.734;2022-12-18T00:33:48;97571.78;;;-6.41;100.00
44255;BME280;29933;47.226;15.734;2022-12-18T00:36:19;97573.78;;;-6.48;100.00
44255;BME280;29933;47.226;15.734;2022-12-18T00:38:48;97580.13;;;-6.49;100.00
44255;BME280;29933;47.226;15.734;2022-12-18T00:41:16;97582.84;;;-6.44;100.00
44255;BME280;29933;47.226;15.734;2022-12-18T00:44:04;97590.34;;;-6.36;100.00
44255;BME280;29933;47.226;15.734;2022-12-18T00:46:31;97590.28;;;-6.41;100.00
44255;BME280;29933;47.226;15.734;2022-12-18T00:48:57;97586.75;;;-6.47;100.00
44255;BME280;29933;47.226;15.734;2022-12-18T00:51:24;97590.16;;;-6.52;100.00
44255;BME280;29933;47.226;15.734;2022-12-18T00:53:51;97595.69;;;-6.53;100.00
44255;BME280;29933;47.226;15.734;2022-12-18T00:56:17;97600.41;;;-6.55;100.00
44255;BME280;29933;47.226;15.734;2022-12-18T00:58:43;97603.31;;;-6.57;100.00
44255;BME280;29933;47.226;15.734;2022-12-18T01:01:09;97598.50;;;-6.60;100.00
44255;BME280;29933;47.226;15.734;2022-12-18T01:03:35;97601.88;;;-6.64;100.00
44255;BME280;29933;47.226;15.734;2022-12-18T01:06:09;97598.44;;;-6.65;100.00
44255;BME280;29933;47.226;15.734;2022-12-18T01:08:36;97596.59;;;-6.64;100.00
44255;BME280;29933;47.226;15.734;2022-12-18T01:11:13;97609.59;;;-6.63;100.00
44255;BME280;29933;47.226;15.734;2022-12-18T01:13:39;97603.84;;;-6.55;100.00
44255;BME280;29933;47.226;15.734;2022-12-18T01:16:05;97617.06;;;-6.55;100.00
44255;BME280;29933;47.226;15.734;2022-12-18T01:18:31;97617.56;;;-6.58;100.00
44255;BME280;29933;47.226;15.734;2022-12-18T01:20:58;97618.84;;;-6.60;100.00
44255;BME280;29933;47.226;15.734;2022-12-18T01:23:24;97623.00;;;-6.64;100.00
44255;BME280;29933;47.226;15.734;2022-12-18T01:25:51;97632.78;;;-6.65;100.00
44255;BME280;29933;47.226;15.734;2022-12-18T01:28:17;97627.50;;;-6.65;100.00
44255;BME280;29933;47.226;15.734;2022-12-18T01:30:43;97634.88;;;-6.67;100.00
44255;BME280;29933;47.226;15.734;2022-12-18T01:33:09;97628.22;;;-6.70;100.00
44255;BME280;29933;47.226;15.734;2022-12-18T01:35:41;97639.63;;;-6.69;100.00
44255;BME280;29933;47.226;15.734;2022-12-18T01:38:07;97640.16;;;-6.67;100.00
44255;BME280;29933;47.226;15.734;2022-12-18T01:40:33;97640.66;;;-6.70;100.00
44255;BME280;29933;47.226;15.734;2022-12-18T01:42:59;97640.34;;;-6.74;100.00
44255;BME280;29933;47.226;15.734;2022-12-18T01:45:30;97635.56;;;-6.77;100.00
44255;BME280;29933;47.226;15.734;2022-12-18T01:48:01;97639.56;;;-6.74;100.00
44255;BME280;29933;47.226;15.734;2022-12-18T01:50:41;97645.38;;;-6.72;100.00
44255;BME280;29933;47.226;15.734;2022-12-18T01:53:15;97649.63;;;-6.71;100.00
44255;BME280;29933;47.226;15.734;2022-12-18T01:55:52;97648.03;;;-6.72;100.00
44255;BME280;29933;47.226;15.734;2022-12-18T01:58:21;97654.13;;;-6.72;100.00
44255;BME280;29933;47.226;15.734;2022-12-18T02:00:48;97655.41;;;-6.74;100.00
44255;BME280;29933;47.226;15.734;2022-12-18T02:03:14;97663.00;;;-6.78;100.00
44255;BME280;29933;47.226;15.734;2022-12-18T02:06:01;97659.00;;;-6.80;100.00
44255;BME280;29933;47.226;15.734;2022-12-18T02:08:48;97667.25;;;-6.77;100.00
44255;BME280;29933;47.226;15.734;2022-12-18T02:11:28;97671.41;;;-6.81;100.00
44255;BME280;29933;47.226;15.734;2022-12-18T02:14:17;97676.16;;;-6.83;100.00
44255;BME280;29933;47.226;15.734;2022-12-18T02:22:26;97684.22;;;-6.90;100.00
44255;BME280;29933;47.226;15.734;2022-12-18T02:25:04;97689.25;;;-6.88;100.00
44255;BME280;29933;47.226;15.734;2022-12-18T02:27:34;97679.75;;;-6.89;100.00
44255;BME280;29933;47.226;15.734;2022-12-18T02:30:04;97684.22;;;-6.90;100.00
44255;BME280;29933;47.226;15.734;2022-12-18T02:32:38;97690.00;;;-6.93;100.00
44255;BME280;29933;47.226;15.734;2022-12-18T02:35:08;97689.94;;;-6.98;100.00
44255;BME280;29933;47.226;15.734;2022-12-18T02:37:36;97692.06;;;-6.95;100.00
44255;BME280;29933;47.226;15.734;2022-12-18T02:40:05;97690.47;;;-6.96;100.00
44255;BME280;29933;47.226;15.734;2022-12-18T02:42:32;97691.28;;;-6.95;100.00
44255;BME280;29933;47.226;15.734;2022-12-18T02:44:58;97689.94;;;-6.98;100.00
44255;BME280;29933;47.226;15.734;2022-12-18T02:47:31;97683.28;;;-7.01;100.00
44255;BME280;29933;47.226;15.734;2022-12-18T02:50:02;97689.81;;;-7.03;100.00
44255;BME280;29933;47.226;15.734;2022-12-18T03:03:53;97701.75;;;-7.18;100.00
44255;BME280;29933;47.226;15.734;2022-12-18T03:06:30;97705.44;;;-7.19;100.00
44255;BME280;29933;47.226;15.734;2022-12-18T03:09:09;97691.66;;;-7.21;100.00
44255;BME280;29933;47.226;15.734;2022-12-18T03:11:40;97711.19;;;-7.22;100.00
44255;BME280;29933;47.226;15.734;2022-12-18T03:14:27;97715.13;;;-7.24;100.00
44255;BME280;29933;47.226;15.734;2022-12-18T03:16:55;97717.34;;;-7.33;100.00
44255;BME280;29933;47.226;15.734;2022-12-18T03:19:26;97711.56;;;-7.30;100.00
44255;BME280;29933;47.226;15.734;2022-12-18T03:21:56;97712.06;;;-7.33;100.00
44255;BME280;29933;47.226;15.734;2022-12-18T03:24:24;97719.50;;;-7.30;100.00
44255;BME280;29933;47.226;15.734;2022-12-18T03:26:57;97718.47;;;-7.29;100.00
44255;BME280;29933;47.226;15.734;2022-12-18T03:29:48;97719.50;;;-7.30;100.00
44255;BME280;29933;47.226;15.734;2022-12-18T03:32:28;97726.63;;;-7.30;100.00
44255;BME280;29933;47.226;15.734;2022-12-18T03:35:01;97721.22;;;-7.36;100.00
44255;BME280;29933;47.226;15.734;2022-12-18T03:37:29;97722.28;;;-7.37;100.00
44255;BME280;29933;47.226;15.734;2022-12-18T03:39:54;97722.19;;;-7.42;100.00
44255;BME280;29933;47.226;15.734;2022-12-18T03:42:36;97712.19;;;-7.40;100.00
44255;BME280;29933;47.226;15.734;2022-12-18T03:50:59;97720.19;;;-7.35;100.00
44255;BME280;29933;47.226;15.734;2022-12-18T03:53:47;97726.75;;;-7.37;100.00
44255;BME280;29933;47.226;15.734;2022-12-18T03:56:17;97729.88;;;-7.40;100.00
44255;BME280;29933;47.226;15.734;2022-12-18T03:58:44;97735.38;;;-7.42;100.00
44255;BME280;29933;47.226;15.734;2022-12-18T04:01:14;97735.72;;;-7.38;100.00
44255;BME280;29933;47.226;15.734;2022-12-18T04:03:42;97732.03;;;-7.37;100.00
44255;BME280;29933;47.226;15.734;2022-12-18T04:06:10;97731.69;;;-7.41;100.00
44255;BME280;29933;47.226;15.734;2022-12-18T04:08:36;97738.84;;;-7.41;100.00
44255;BME280;29933;47.226;15.734;2022-12-18T04:11:04;97735.16;;;-7.40;100.00
44255;BME280;29933;47.226;15.734;2022-12-18T04:13:35;97733.56;;;-7.41;100.00
44255;BME280;29933;47.226;15.734;2022-12-18T04:16:01;97739.28;;;-7.44;100.00
44255;BME280;29933;47.226;15.734;2022-12-18T04:18:27;97744.56;;;-7.44;100.00
44255;BME280;29933;47.226;15.734;2022-12-18T04:20:53;97745.38;;;-7.44;100.00
44255;BME280;29933;47.226;15.734;2022-12-18T04:23:19;97749.84;;;-7.44;100.00
44255;BME280;29933;47.226;15.734;2022-12-18T04:25:46;97752.97;;;-7.47;100.00
44255;BME280;29933;47.226;15.734;2022-12-18T04:28:12;97752.97;;;-7.47;100.00
44255;BME280;29933;47.226;15.734;2022-12-18T04:30:38;97764.41;;;-7.42;100.00
44255;BME280;29933;47.226;15.734;2022-12-18T04:33:09;97757.75;;;-7.44;100.00
44255;BME280;29933;47.226;15.734;2022-12-18T04:35:35;97754.00;;;-7.49;100.00
44255;BME280;29933;47.226;15.734;2022-12-18T04:38:01;97758.16;;;-7.53;100.00
44255;BME280;29933;47.226;15.734;2022-12-18T04:40:27;97769.75;;;-7.54;100.00
44255;BME280;29933;47.226;15.734;2022-12-18T04:42:53;97771.00;;;-7.56;100.00
44255;BME280;29933;47.226;15.734;2022-12-18T04:45:19;97770.22;;;-7.57;100.00
44255;BME280;29933;47.226;15.734;2022-12-18T04:47:45;97776.63;;;-7.53;100.00
44255;BME280;29933;47.226;15.734;2022-12-18T04:50:10;97776.38;;;-7.51;100.00
44255;BME280;29933;47.226;15.734;2022-12-18T04:52:36;97771.91;;;-7.51;100.00
44255;BME280;29933;47.226;15.734;2022-12-18T04:55:02;97780.88;;;-7.52;100.00
44255;BME280;29933;47.226;15.734;2022-12-18T04:57:28;97774.78;;;-7.52;100.00
44255;BME280;29933;47.226;15.734;2022-12-18T04:59:55;97774.44;;;-7.56;100.00
44255;BME280;29933;47.226;15.734;2022-12-18T05:02:20;97786.38;;;-7.53;100.00
44255;BME280;29933;47.226;15.734;2022-12-18T05:04:46;97779.50;;;-7.54;100.00
44255;BME280;29933;47.226;15.734;2022-12-18T05:07:12;97777.09;;;-7.56;100.00
44255;BME280;29933;47.226;15.734;2022-12-18T05:09:38;97773.06;;;-7.58;100.00
44255;BME280;29933;47.226;15.734;2022-12-18T05:12:04;97781.56;;;-7.56;100.00
44255;BME280;29933;47.226;15.734;2022-12-18T05:14:30;97786.50;;;-7.60;100.00
44255;BME280;29933;47.226;15.734;2022-12-18T05:16:56;97788.81;;;-7.63;100.00
44255;BME280;29933;47.226;15.734;2022-12-18T05:19:22;97794.91;;;-7.63;100.00
44255;BME280;29933;47.226;15.734;2022-12-18T05:21:48;97802.47;;;-7.67;100.00
44255;BME280;29933;47.226;15.734;2022-12-18T05:24:14;97803.75;;;-7.69;100.00
44255;BME280;29933;47.226;15.734;2022-12-18T05:26:39;97804.31;;;-7.67;100.00
44255;BME280;29933;47.226;15.734;2022-12-18T05:29:05;97811.66;;;-7.69;100.00
44255;BME280;29933;47.226;15.734;2022-12-18T05:31:31;97813.72;;;-7.71;100.00
44255;BME280;29933;47.226;15.734;2022-12-18T05:33:57;97812.69;;;-7.70;100.00
44255;BME280;29933;47.226;15.734;2022-12-18T05:36:23;97815.88;;;-7.68;100.00
44255;BME280;29933;47.226;15.734;2022-12-18T05:38:49;97820.63;;;-7.70;100.00
44255;BME280;29933;47.226;15.734;2022-12-18T05:41:15;97822.44;;;-7.71;100.00
44255;BME280;29933;47.226;15.734;2022-12-18T05:43:42;97832.44;;;-7.73;100.00
44255;BME280;29933;47.226;15.734;2022-12-18T05:46:15;97832.44;;;-7.73;100.00
44255;BME280;29933;47.226;15.734;2022-12-18T05:48:42;97840.00;;;-7.76;100.00
44255;BME280;29933;47.226;15.734;2022-12-18T05:51:11;97843.91;;;-7.79;100.00
44255;BME280;29933;47.226;15.734;2022-12-18T05:53:37;97844.69;;;-7.78;100.00
44255;BME280;29933;47.226;15.734;2022-12-18T05:56:06;97856.28;;;-7.79;100.00
44255;BME280;29933;47.226;15.734;2022-12-18T05:58:33;97853.63;;;-7.79;100.00
44255;BME280;29933;47.226;15.734;2022-12-18T06:01:12;97845.53;;;-7.78;100.00
44255;BME280;29933;47.226;15.734;2022-12-18T06:03:38;97848.25;;;-7.85;100.00
44255;BME280;29933;47.226;15.734;2022-12-18T06:06:13;97845.06;;;-7.87;100.00
44255;BME280;29933;47.226;15.734;2022-12-18T06:08:39;97851.38;;;-7.88;100.00
44255;BME280;29933;47.226;15.734;2022-12-18T06:11:05;97852.41;;;-7.89;100.00
44255;BME280;29933;47.226;15.734;2022-12-18T06:13:30;97851.38;;;-7.88;100.00
44255;BME280;29933;47.226;15.734;2022-12-18T06:15:56;97857.09;;;-7.91;100.00
44255;BME280;29933;47.226;15.734;2022-12-18T06:18:22;97856.75;;;-7.94;100.00
44255;BME280;29933;47.226;15.734;2022-12-18T06:20:58;97863.06;;;-7.95;100.00
44255;BME280;29933;47.226;15.734;2022-12-18T06:23:25;97866.63;;;-8.02;100.00
44255;BME280;29933;47.226;15.734;2022-12-18T06:25:51;97873.97;;;-8.04;100.00
44255;BME280;29933;47.226;15.734;2022-12-18T06:28:18;97877.72;;;-8.00;100.00
44255;BME280;29933;47.226;15.734;2022-12-18T06:30:45;97880.72;;;-7.96;100.00
44255;BME280;29933;47.226;15.734;2022-12-18T06:33:11;97880.28;;;-7.93;100.00
44255;BME280;29933;47.226;15.734;2022-12-18T06:35:37;97891.03;;;-7.94;100.00
44255;BME280;29933;47.226;15.734;2022-12-18T06:38:03;97899.66;;;-7.99;100.00
44255;BME280;29933;47.226;15.734;2022-12-18T06:40:29;97897.69;;;-8.04;100.00
44255;BME280;29933;47.226;15.734;2022-12-18T06:42:55;97900.09;;;-8.02;100.00
44255;BME280;29933;47.226;15.734;2022-12-18T06:45:21;97903.31;;;-8.00;100.00
44255;BME280;29933;47.226;15.734;2022-12-18T06:47:47;97901.81;;;-7.96;100.00
44255;BME280;29933;47.226;15.734;2022-12-18T06:50:13;97906.06;;;-7.95;100.00
44255;BME280;29933;47.226;15.734;2022-12-18T06:52:39;97903.06;;;-7.99;100.00
44255;BME280;29933;47.226;15.734;2022-12-18T06:55:07;97909.13;;;-7.98;100.00
44255;BME280;29933;47.226;15.734;2022-12-18T06:57:33;97915.00;;;-7.96;100.00
44255;BME280;29933;47.226;15.734;2022-12-18T06:59:59;97912.13;;;-7.94;100.00
44255;BME280;29933;47.226;15.734;2022-12-18T07:02:25;97910.88;;;-7.92;100.00
44255;BME280;29933;47.226;15.734;2022-12-18T07:04:51;97910.06;;;-7.92;100.00
44255;BME280;29933;47.226;15.734;2022-12-18T07:07:17;97920.38;;;-7.91;100.00
44255;BME280;29933;47.226;15.734;2022-12-18T07:09:43;97920.63;;;-7.92;100.00
44255;BME280;29933;47.226;15.734;2022-12-18T07:12:09;97914.41;;;-7.98;100.00
44255;BME280;29933;47.226;15.734;2022-12-18T07:14:35;97913.84;;;-8.00;100.00
44255;BME280;29933;47.226;15.734;2022-12-18T07:17:01;97917.97;;;-8.04;100.00
44255;BME280;29933;47.226;15.734;2022-12-18T07:19:27;97918.66;;;-8.09;100.00
44255;BME280;29933;47.226;15.734;2022-12-18T07:21:52;97922.22;;;-8.15;100.00
44255;BME280;29933;47.226;15.734;2022-12-18T07:24:18;97925.53;;;-8.20;100.00
44255;BME280;29933;47.226;15.734;2022-12-18T07:26:48;97934.91;;;-8.24;100.00
44255;BME280;29933;47.226;15.734;2022-12-18T07:29:14;97928.81;;;-8.24;100.00
44255;BME280;29933;47.226;15.734;2022-12-18T07:31:39;97946.59;;;-8.20;100.00
44255;BME280;29933;47.226;15.734;2022-12-18T07:34:05;97940.91;;;-8.17;100.00
44255;BME280;29933;47.226;15.734;2022-12-18T07:36:34;97943.66;;;-8.11;100.00
44255;BME280;29933;47.226;15.734;2022-12-18T07:39:00;97940.09;;;-8.05;100.00
44255;BME280;29933;47.226;15.734;2022-12-18T07:41:26;97943.41;;;-7.98;100.00
44255;BME280;29933;47.226;15.734;2022-12-18T07:43:52;97946.53;;;-7.89;100.00
44255;BME280;29933;47.226;15.734;2022-12-18T07:46:19;97947.81;;;-7.80;100.00
44255;BME280;29933;47.226;15.734;2022-12-18T07:48:45;97938.97;;;-7.74;100.00
44255;BME280;29933;47.226;15.734;2022-12-18T07:51:11;97943.59;;;-7.69;100.00
44255;BME280;29933;47.226;15.734;2022-12-18T07:53:38;97957.91;;;-7.65;100.00
44255;BME280;29933;47.226;15.734;2022-12-18T07:56:10;97959.53;;;-7.64;100.00
44255;BME280;29933;47.226;15.734;2022-12-18T07:58:37;97958.03;;;-7.60;100.00
44255;BME280;29933;47.226;15.734;2022-12-18T08:01:09;97968.69;;;-7.55;100.00
44255;BME280;29933;47.226;15.734;2022-12-18T08:03:36;97977.19;;;-7.53;100.00
44255;BME280;29933;47.226;15.734;2022-12-18T08:06:05;97974.91;;;-7.49;100.00
44255;BME280;29933;47.226;15.734;2022-12-18T08:08:33;97979.16;;;-7.48;100.00
44255;BME280;29933;47.226;15.734;2022-12-18T08:10:59;97974.19;;;-7.44;100.00
44255;BME280;29933;47.226;15.734;2022-12-18T08:13:26;97971.69;;;-7.39;100.00
44255;BME280;29933;47.226;15.734;2022-12-18T08:16:04;97983.03;;;-7.39;100.00
44255;BME280;29933;47.226;15.734;2022-12-18T08:18:33;97976.03;;;-7.33;100.00
44255;BME280;29933;47.226;15.734;2022-12-18T08:21:15;97985.66;;;-7.27;100.00
44255;BME280;29933;47.226;15.734;2022-12-18T08:23:42;97984.97;;;-7.22;100.00
44255;BME280;29933;47.226;15.734;2022-12-18T08:26:08;97982.22;;;-7.16;100.00
44255;BME280;29933;47.226;15.734;2022-12-18T08:28:34;97986.56;;;-7.09;100.00
44255;BME280;29933;47.226;15.734;2022-12-18T08:31:00;97985.63;;;-7.03;100.00
44255;BME280;29933;47.226;15.734;2022-12-18T08:33:26;97980.47;;;-6.98;100.00
44255;BME280;29933;47.226;15.734;2022-12-18T08:35:52;97984.22;;;-6.94;100.00
44255;BME280;29933;47.226;15.734;2022-12-18T08:38:18;97969.50;;;-6.90;100.00
44255;BME280;29933;47.226;15.734;2022-12-18T08:40:44;97972.25;;;-6.85;100.00
44255;BME280;29933;47.226;15.734;2022-12-18T08:43:11;97961.78;;;-6.79;100.00
44255;BME280;29933;47.226;15.734;2022-12-18T08:45:55;97958.00;;;-6.72;100.00
44255;BME280;29933;47.226;15.734;2022-12-18T08:48:21;97955.56;;;-6.73;100.00
44255;BME280;29933;47.226;15.734;2022-12-18T08:50:58;97958.88;;;-6.66;100.00
44255;BME280;29933;47.226;15.734;2022-12-18T08:53:24;97964.72;;;-6.64;100.00
44255;BME280;29933;47.226;15.734;2022-12-18T08:55:50;97970.72;;;-6.69;100.00
44255;BME280;29933;47.226;15.734;2022-12-18T08:58:17;97975.75;;;-6.67;100.00
44255;BME280;29933;47.226;15.734;2022-12-18T09:00:43;97982.09;;;-6.68;100.00
44255;BME280;29933;47.226;15.734;2022-12-18T09:03:17;97982.09;;;-6.68;100.00
44255;BME280;29933;47.226;15.734;2022-12-18T09:05:45;97989.09;;;-6.62;100.00
44255;BME280;29933;47.226;15.734;2022-12-18T09:08:11;97991.84;;;-6.57;100.00
44255;BME280;29933;47.226;15.734;2022-12-18T09:10:48;97984.53;;;-6.49;100.00
44255;BME280;29933;47.226;15.734;2022-12-18T09:13:15;97988.34;;;-6.45;100.00
44255;BME280;29933;47.226;15.734;2022-12-18T09:15:50;97996.03;;;-6.44;100.00
44255;BME280;29933;47.226;15.734;2022-12-18T09:18:18;97992.91;;;-6.41;100.00
44255;BME280;29933;47.226;15.734;2022-12-18T09:20:44;97999.69;;;-6.33;100.00
44255;BME280;29933;47.226;15.734;2022-12-18T09:23:11;97999.28;;;-6.25;100.00
44255;BME280;29933;47.226;15.734;2022-12-18T09:25:38;97999.94;;;-6.18;100.00
44255;BME280;29933;47.226;15.734;2022-12-18T09:28:09;98002.13;;;-6.14;100.00
44255;BME280;29933;47.226;15.734;2022-12-18T09:30:38;98002.53;;;-6.06;100.00
44255;BME280;29933;47.226;15.734;2022-12-18T09:33:05;97994.44;;;-5.99;100.00
44255;BME280;29933;47.226;15.734;2022-12-18T09:35:31;98008.03;;;-5.90;100.00
44255;BME280;29933;47.226;15.734;2022-12-18T09:37:56;98015.09;;;-5.79;100.00
44255;BME280;29933;47.226;15.734;2022-12-18T09:40:26;98010.88;;;-5.63;100.00
44255;BME280;29933;47.226;15.734;2022-12-18T09:42:58;98006.38;;;-5.45;100.00
44255;BME280;29933;47.226;15.734;2022-12-18T09:45:26;97995.50;;;-5.27;100.00
44255;BME280;29933;47.226;15.734;2022-12-18T09:47:54;97999.41;;;-5.12;100.00
44255;BME280;29933;47.226;15.734;2022-12-18T09:50:32;97999.84;;;-4.98;100.00
44255;BME280;29933;47.226;15.734;2022-12-18T09:53:06;97992.84;;;-4.88;100.00
44255;BME280;29933;47.226;15.734;2022-12-18T09:55:39;97987.91;;;-4.79;100.00
44255;BME280;29933;47.226;15.734;2022-12-18T10:00:35;97985.88;;;-4.72;100.00
44255;BME280;29933;47.226;15.734;2022-12-18T10:03:10;97969.28;;;-4.62;100.00
44255;BME280;29933;47.226;15.734;2022-12-18T10:06:57;97978.59;;;-4.59;100.00
44255;BME280;29933;47.226;15.734;2022-12-18T10:15:11;97968.88;;;-3.56;100.00
44255;BME280;29933;47.226;15.734;2022-12-18T10:18:02;97962.34;;;-2.95;100.00
44255;BME280;29933;47.226;15.734;2022-12-18T10:20:46;97965.97;;;-2.48;100.00
44255;BME280;29933;47.226;15.734;2022-12-18T10:26:07;97962.88;;;-2.98;100.00
44255;BME280;29933;47.226;15.734;2022-12-18T10:28:37;97960.66;;;-3.12;100.00
44255;BME280;29933;47.226;15.734;2022-12-18T10:31:24;97967.84;;;-3.12;100.00
44255;BME280;29933;47.226;15.734;2022-12-18T10:33:53;97982.22;;;-3.03;100.00
44255;BME280;29933;47.226;15.734;2022-12-18T10:36:20;97975.34;;;-2.94;100.00
44255;BME280;29933;47.226;15.734;2022-12-18T10:38:46;97979.94;;;-2.84;100.00
44255;BME280;29933;47.226;15.734;2022-12-18T10:43:45;97981.72;;;-2.21;100.00
44255;BME280;29933;47.226;15.734;2022-12-18T10:51:28;97969.44;;;-1.24;100.00
44255;BME280;29933;47.226;15.734;2022-12-18T10:54:05;97970.53;;;-1.30;100.00
44255;BME280;29933;47.226;15.734;2022-12-18T10:56:35;97953.78;;;-1.46;100.00
44255;BME280;29933;47.226;15.734;2022-12-18T10:59:05;97946.34;;;-1.65;100.00
44255;BME280;29933;47.226;15.734;2022-12-18T11:04:33;97959.66;;;-2.11;100.00
44255;BME280;29933;47.226;15.734;2022-12-18T11:07:05;97959.09;;;-2.29;100.00
44255;BME280;29933;47.226;15.734;2022-12-18T11:09:38;97953.72;;;-2.44;100.00
44255;BME280;29933;47.226;15.734;2022-12-18T11:12:19;97951.84;;;-2.54;100.00
44255;BME280;29933;47.226;15.734;2022-12-18T11:14:51;97957.41;;;-2.61;100.00
44255;BME280;29933;47.226;15.734;2022-12-18T11:17:29;97956.84;;;-2.68;100.00
44255;BME280;29933;47.226;15.734;2022-12-18T11:20:35;97955.78;;;-2.77;100.00
44255;BME280;29933;47.226;15.734;2022-12-18T11:23:04;97943.75;;;-2.85;100.00
44255;BME280;29933;47.226;15.734;2022-12-18T11:25:32;97943.50;;;-2.88;100.00
44255;BME280;29933;47.226;15.734;2022-12-18T11:28:41;97949.06;;;-2.90;100.00
44255;BME280;29933;47.226;15.734;2022-12-18T11:33:45;97955.97;;;-2.94;100.00
44255;BME280;29933;47.226;15.734;2022-12-18T11:36:13;97950.09;;;-2.96;100.00
44255;BME280;29933;47.226;15.734;2022-12-18T11:38:41;97948.78;;;-2.94;100.00
44255;BME280;29933;47.226;15.734;2022-12-18T11:44:45;97944.00;;;-2.91;100.00
44255;BME280;29933;47.226;15.734;2022-12-18T11:50:38;97944.53;;;-2.95;100.00
44255;BME280;29933;47.226;15.734;2022-12-18T11:53:11;97941.34;;;-2.91;100.00
44255;BME280;29933;47.226;15.734;2022-12-18T12:06:41;97931.47;;;-2.96;100.00
44255;BME280;29933;47.226;15.734;2022-12-18T12:17:50;97924.59;;;-2.97;100.00
44255;BME280;29933;47.226;15.734;2022-12-18T12:26:23;97934.44;;;-2.93;100.00
44255;BME280;29933;47.226;15.734;2022-12-18T12:29:21;97935.25;;;-2.92;100.00
44255;BME280;29933;47.226;15.734;2022-12-18T12:40:27;97928.31;;;-2.98;100.00
44255;BME280;29933;47.226;15.734;2022-12-18T12:43:02;97936.00;;;-3.02;100.00
44255;BME280;29933;47.226;15.734;2022-12-18T12:48:55;97933.06;;;-3.00;100.00
44255;BME280;29933;47.226;15.734;2022-12-18T12:51:31;97937.28;;;-3.10;100.00
44255;BME280;29933;47.226;15.734;2022-12-18T12:53:59;97931.97;;;-3.15;100.00
44255;BME280;29933;47.226;15.734;2022-12-18T12:57:26;97942.06;;;-3.12;100.00
44255;BME280;29933;47.226;15.734;2022-12-18T13:08:28;97941.19;;;-3.22;100.00
44255;BME280;29933;47.226;15.734;2022-12-18T13:10:59;97944.41;;;-3.20;100.00
44255;BME280;29933;47.226;15.734;2022-12-18T13:13:51;97951.00;;;-3.28;100.00
44255;BME280;29933;47.226;15.734;2022-12-18T13:16:22;97936.63;;;-3.32;100.00
44255;BME280;29933;47.226;15.734;2022-12-18T13:18:54;97932.41;;;-3.28;100.00
44255;BME280;29933;47.226;15.734;2022-12-18T13:21:29;97936.56;;;-3.43;100.00
44255;BME280;29933;47.226;15.734;2022-12-18T13:23:56;97943.16;;;-3.55;100.00
44255;BME280;29933;47.226;15.734;2022-12-18T13:26:39;97939.94;;;-3.58;100.00
44255;BME280;29933;47.226;15.734;2022-12-18T13:29:05;97934.91;;;-3.54;100.00
44255;BME280;29933;47.226;15.734;2022-12-18T13:34:24;97939.97;;;-3.52;100.00
44255;BME280;29933;47.226;15.734;2022-12-18T13:36:53;97946.34;;;-3.53;100.00
44255;BME280;29933;47.226;15.734;2022-12-18T13:41:49;97954.31;;;-3.53;100.00
44255;BME280;29933;47.226;15.734;2022-12-18T13:44:39;97961.72;;;-3.55;100.00
44255;BME280;29933;47.226;15.734;2022-12-18T13:47:31;97974.97;;;-3.61;100.00
44255;BME280;29933;47.226;15.734;2022-12-18T13:49:58;97969.63;;;-3.66;100.00
44255;BME280;29933;47.226;15.734;2022-12-18T13:52:33;97970.94;;;-3.68;100.00
44255;BME280;29933;47.226;15.734;2022-12-18T13:55:06;97975.44;;;-3.69;100.00
44255;BME280;29933;47.226;15.734;2022-12-18T13:57:37;97971.19;;;-3.70;100.00
44255;BME280;29933;47.226;15.734;2022-12-18T14:02:49;97974.13;;;-3.66;100.00
44255;BME280;29933;47.226;15.734;2022-12-18T14:05:27;97982.66;;;-3.64;100.00
44255;BME280;29933;47.226;15.734;2022-12-18T14:07:55;97982.41;;;-3.63;100.00
44255;BME280;29933;47.226;15.734;2022-12-18T14:10:25;97983.22;;;-3.62;100.00
44255;BME280;29933;47.226;15.734;2022-12-18T14:12:51;97981.31;;;-3.67;100.00
44255;BME280;29933;47.226;15.734;2022-12-18T14:20:31;97979.69;;;-3.68;100.00
44255;BME280;29933;47.226;15.734;2022-12-18T14:22:58;97980.75;;;-3.69;100.00
44255;BME280;29933;47.226;15.734;2022-12-18T14:25:29;97980.47;;;-3.72;100.00
44255;BME280;29933;47.226;15.734;2022-12-18T14:30:42;97990.78;;;-3.76;100.00
44255;BME280;29933;47.226;15.734;2022-12-18T14:35:52;97999.31;;;-3.74;100.00
44255;BME280;29933;47.226;15.734;2022-12-18T14:38:26;98002.75;;;-3.74;100.00
44255;BME280;29933;47.226;15.734;2022-12-18T14:41:06;98009.13;;;-3.75;100.00
44255;BME280;29933;47.226;15.734;2022-12-18T14:43:39;98010.47;;;-3.72;100.00
44255;BME280;29933;47.226;15.734;2022-12-18T14:46:36;98006.22;;;-3.73;100.00
44255;BME280;29933;47.226;15.734;2022-12-18T14:49:33;98005.91;;;-3.77;100.00
44255;BME280;29933;47.226;15.734;2022-12-18T14:52:06;98000.31;;;-3.80;100.00
44255;BME280;29933;47.226;15.734;2022-12-18T14:54:34;97994.72;;;-3.84;100.00
44255;BME280;29933;47.226;15.734;2022-12-18T14:57:25;97999.22;;;-3.84;100.00